createdAt,value
2023-02-26T00:01:29.388Z,99.90
2023-02-26T00:03:57.000Z,99.90
2023-02-26T00:06:24.938Z,99.90
2023-02-26T00:08:51.908Z,99.90
2023-02-26T00:11:18.801Z,99.90
2023-02-26T00:13:45.785Z,99.90
2023-02-26T00:16:31.588Z,99.90
2023-02-26T00:18:59.764Z,99.90
2023-02-26T00:21:27.083Z,99.90
2023-02-26T00:23:54.004Z,99.90
2023-02-26T00:26:20.833Z,99.90
2023-02-26T00:28:47.470Z,99.90
2023-02-26T00:31:17.582Z,99.90
2023-02-26T00:33:46.941Z,99.90
2023-02-26T00:36:13.598Z,99.90
2023-02-26T00:38:43.144Z,99.90
2023-02-26T00:41:09.937Z,99.90
2023-02-26T00:43:36.571Z,99.90
2023-02-26T00:46:06.337Z,99.90
2023-02-26T00:48:38.288Z,99.90
2023-02-26T00:51:23.632Z,99.90
2023-02-26T00:53:58.371Z,99.90
2023-02-26T00:56:25.249Z,99.90
2023-02-26T00:58:51.953Z,99.90
2023-02-26T01:01:18.531Z,99.90
2023-02-26T01:03:45.129Z,99.90
2023-02-26T01:06:18.101Z,99.90
2023-02-26T01:08:59.601Z,99.90
2023-02-26T01:11:26.258Z,99.90
2023-02-26T01:13:53.110Z,99.90
2023-02-26T01:16:27.113Z,99.90
2023-02-26T01:19:03.528Z,99.90
2023-02-26T01:21:35.936Z,99.90
2023-02-26T01:24:05.489Z,99.90
2023-02-26T01:26:32.077Z,99.90
2023-02-26T01:28:58.779Z,99.90
2023-02-26T01:31:34.844Z,99.90
2023-02-26T01:34:20.456Z,99.90
2023-02-26T01:36:51.912Z,99.90
2023-02-26T01:39:40.266Z,99.90
2023-02-26T01:42:24.945Z,99.90
2023-02-26T01:44:58.273Z,99.90
2023-02-26T01:47:30.710Z,99.90
2023-02-26T01:49:58.599Z,99.90
2023-02-26T01:52:57.564Z,99.90
2023-02-26T01:55:26.680Z,99.90
2023-02-26T01:57:55.195Z,99.90
2023-02-26T02:00:21.852Z,92.90
2023-02-26T02:02:49.536Z,93.40
2023-02-26T02:05:26.811Z,99.90
2023-02-26T02:07:53.387Z,99.90
2023-02-26T02:10:20.026Z,99.90
2023-02-26T02:12:51.017Z,99.90
2023-02-26T02:15:23.569Z,99.90
2023-02-26T02:17:50.050Z,99.90
2023-02-26T02:20:41.480Z,99.90
2023-02-26T02:23:19.650Z,99.90
2023-02-26T02:25:58.300Z,99.90
2023-02-26T02:28:27.872Z,99.90
2023-02-26T02:31:11.852Z,99.90
2023-02-26T02:33:49.561Z,99.90
2023-02-26T02:36:35.363Z,99.90
2023-02-26T02:39:09.017Z,99.90
2023-02-26T02:41:38.384Z,99.90
2023-02-26T02:44:07.298Z,99.90
2023-02-26T02:46:36.665Z,99.90
2023-02-26T02:49:04.606Z,99.90
2023-02-26T02:51:31.268Z,99.90
2023-02-26T02:54:08.218Z,99.90
2023-02-26T02:56:38.868Z,99.90
2023-02-26T02:59:18.068Z,99.90
2023-02-26T03:01:45.257Z,99.90
2023-02-26T03:04:16.104Z,99.90
2023-02-26T03:06:43.002Z,99.90
2023-02-26T03:09:10.491Z,99.90
2023-02-26T03:11:37.185Z,99.90
2023-02-26T03:14:04.434Z,99.90
2023-02-26T03:16:36.900Z,99.90
2023-02-26T03:19:12.568Z,99.90
2023-02-26T03:21:39.073Z,99.90
2023-02-26T03:24:05.795Z,99.90
2023-02-26T03:27:07.954Z,99.90
2023-02-26T03:29:37.972Z,99.90
2023-02-26T03:32:07.997Z,99.90
2023-02-26T03:34:41.537Z,99.90
2023-02-26T03:37:26.875Z,99.90
2023-02-26T03:39:55.172Z,99.90
2023-02-26T03:42:28.293Z,99.90
2023-02-26T03:45:09.828Z,99.90
2023-02-26T03:47:36.468Z,99.90
2023-02-26T03:50:05.791Z,99.90
2023-02-26T03:52:34.337Z,99.90
2023-02-26T03:55:04.469Z,99.90
2023-02-26T03:57:31.170Z,99.90
2023-02-26T03:59:57.829Z,99.90
2023-02-26T04:02:34.929Z,99.90
2023-02-26T04:05:16.332Z,99.90
2023-02-26T04:07:44.910Z,99.90
2023-02-26T04:10:14.240Z,99.90
2023-02-26T04:12:40.762Z,99.90
2023-02-26T04:15:07.556Z,99.90
2023-02-26T04:17:34.240Z,99.90
2023-02-26T04:20:00.742Z,99.90
2023-02-26T04:22:27.272Z,99.90
2023-02-26T04:24:53.786Z,99.90
2023-02-26T04:27:20.345Z,99.90
2023-02-26T04:29:48.041Z,99.90
2023-02-26T04:32:14.748Z,99.90
2023-02-26T04:34:41.428Z,99.90
2023-02-26T04:37:07.960Z,99.90
2023-02-26T04:39:34.610Z,99.90
2023-02-26T04:42:01.497Z,99.90
2023-02-26T04:44:28.016Z,99.90
2023-02-26T04:46:54.761Z,99.90
2023-02-26T04:49:21.345Z,99.90
2023-02-26T04:51:47.953Z,99.90
2023-02-26T04:54:14.607Z,99.90
2023-02-26T04:56:41.143Z,99.90
2023-02-26T04:59:07.792Z,99.90
2023-02-26T05:01:34.403Z,99.90
2023-02-26T05:04:01.791Z,99.90
2023-02-26T05:06:28.300Z,99.90
2023-02-26T05:08:54.839Z,99.90
2023-02-26T05:11:21.385Z,99.90
2023-02-26T05:13:47.917Z,99.90
2023-02-26T05:16:14.524Z,99.90
2023-02-26T05:18:41.059Z,99.90
2023-02-26T05:21:07.619Z,99.90
2023-02-26T05:23:34.171Z,99.90
2023-02-26T05:26:00.727Z,99.90
2023-02-26T05:28:27.346Z,99.90
2023-02-26T05:30:55.581Z,99.90
2023-02-26T05:33:22.157Z,99.90
2023-02-26T05:35:48.985Z,99.90
2023-02-26T05:38:15.714Z,99.90
2023-02-26T05:40:42.294Z,99.90
2023-02-26T05:43:09.026Z,99.90
2023-02-26T05:45:35.576Z,99.90
2023-02-26T05:48:02.101Z,99.90
2023-02-26T05:50:30.358Z,99.90
2023-02-26T05:52:56.944Z,99.90
2023-02-26T05:55:23.466Z,99.90
2023-02-26T05:57:50.048Z,99.90
2023-02-26T06:00:16.852Z,99.90
2023-02-26T06:02:43.469Z,99.90
2023-02-26T06:05:10.039Z,99.90
2023-02-26T06:07:36.870Z,99.90
2023-02-26T06:10:03.473Z,99.90
2023-02-26T06:12:30.004Z,99.90
2023-02-26T06:14:56.527Z,99.90
2023-02-26T06:17:23.097Z,99.90
2023-02-26T06:19:49.772Z,99.90
2023-02-26T06:22:16.329Z,99.90
2023-02-26T06:24:42.848Z,99.90
2023-02-26T06:27:09.389Z,99.90
2023-02-26T06:29:37.532Z,99.90
2023-02-26T06:32:04.960Z,99.90
2023-02-26T06:34:31.707Z,99.90
2023-02-26T06:36:58.310Z,99.90
2023-02-26T06:39:24.815Z,99.90
2023-02-26T06:41:51.325Z,99.90
2023-02-26T06:44:17.897Z,99.90
2023-02-26T06:46:44.461Z,99.90
2023-02-26T06:49:10.981Z,99.90
2023-02-26T06:51:37.533Z,99.90
2023-02-26T06:54:04.089Z,99.90
2023-02-26T06:56:30.617Z,99.90
2023-02-26T06:58:57.192Z,99.90
2023-02-26T07:01:24.318Z,99.90
2023-02-26T07:03:51.075Z,99.90
2023-02-26T07:06:26.917Z,99.90
2023-02-26T07:08:54.192Z,99.90
2023-02-26T07:11:20.773Z,99.90
2023-02-26T07:13:47.416Z,99.90
2023-02-26T07:16:14.038Z,99.90
2023-02-26T07:18:40.599Z,99.90
2023-02-26T07:21:07.561Z,99.90
2023-02-26T07:23:34.088Z,99.60
2023-02-26T07:26:00.704Z,99.90
2023-02-26T07:28:27.298Z,99.90
2023-02-26T07:30:54.555Z,99.90
2023-02-26T07:33:21.293Z,99.90
2023-02-26T07:35:47.971Z,99.90
2023-02-26T07:38:14.532Z,99.60
2023-02-26T07:40:41.058Z,99.90
2023-02-26T07:43:07.588Z,99.90
2023-02-26T07:45:34.134Z,97.60
2023-02-26T07:48:00.680Z,94.50
2023-02-26T07:50:27.667Z,91.60
2023-02-26T07:52:54.200Z,90.80
2023-02-26T07:55:21.018Z,87.90
2023-02-26T07:57:47.701Z,80.60
2023-02-26T08:00:14.672Z,88.00
2023-02-26T08:02:41.332Z,94.50
2023-02-26T08:05:08.073Z,79.90
2023-02-26T08:07:34.654Z,75.30
2023-02-26T08:10:01.529Z,79.90
2023-02-26T08:12:28.444Z,66.40
2023-02-26T08:14:54.986Z,65.60
2023-02-26T08:17:21.503Z,74.20
2023-02-26T08:19:48.004Z,82.20
2023-02-26T08:22:14.665Z,84.30
2023-02-26T08:24:41.335Z,74.40
2023-02-26T08:30:00.836Z,84.70
2023-02-26T08:32:28.461Z,77.10
2023-02-26T08:34:55.625Z,77.30
2023-02-26T08:37:25.235Z,90.60
2023-02-26T08:39:52.607Z,68.90
2023-02-26T08:42:20.510Z,65.00
2023-02-26T08:44:47.578Z,63.30
2023-02-26T08:47:17.114Z,67.90
2023-02-26T08:49:51.081Z,80.50
2023-02-26T08:52:17.648Z,62.00
2023-02-26T08:54:44.202Z,72.00
2023-02-26T08:57:12.851Z,80.20
2023-02-26T08:59:39.497Z,62.70
2023-02-26T09:02:06.365Z,80.60
2023-02-26T09:04:33.020Z,72.80
2023-02-26T09:06:59.548Z,84.00
2023-02-26T09:09:26.172Z,72.60
2023-02-26T09:11:52.704Z,51.80
2023-02-26T09:14:19.378Z,92.00
2023-02-26T09:16:46.186Z,61.70
2023-02-26T09:19:12.781Z,55.50
2023-02-26T09:21:39.410Z,53.80
2023-02-26T09:24:10.462Z,59.70
2023-02-26T09:26:38.313Z,99.90
2023-02-26T09:29:05.097Z,69.60
2023-02-26T09:31:32.648Z,67.50
2023-02-26T09:33:59.296Z,58.90
2023-02-26T09:36:26.217Z,55.10
2023-02-26T09:38:52.946Z,72.10
2023-02-26T09:41:26.388Z,69.20
2023-02-26T09:44:07.580Z,76.70
2023-02-26T09:46:43.940Z,65.50
2023-02-26T09:49:16.780Z,84.70
2023-02-26T09:51:44.185Z,78.20
2023-02-26T09:54:31.026Z,80.80
2023-02-26T09:56:59.577Z,69.30
2023-02-26T09:59:29.402Z,67.60
2023-02-26T10:02:01.941Z,57.00
2023-02-26T10:04:51.031Z,61.20
2023-02-26T10:07:20.308Z,58.10
2023-02-26T10:09:54.028Z,66.10
2023-02-26T10:12:22.365Z,56.20
2023-02-26T10:15:03.930Z,57.90
2023-02-26T10:17:33.441Z,57.50
2023-02-26T10:20:03.416Z,72.90
2023-02-26T10:22:33.397Z,84.20
2023-02-26T10:25:21.354Z,85.60
2023-02-26T10:28:16.489Z,87.40
2023-02-26T10:31:03.575Z,99.90
2023-02-26T10:33:49.212Z,84.30
2023-02-26T10:36:22.064Z,88.70
2023-02-26T10:38:51.065Z,91.30
2023-02-26T10:41:21.066Z,80.20
2023-02-26T10:44:03.570Z,78.90
2023-02-26T10:46:33.314Z,55.40
2023-02-26T10:49:24.974Z,59.20
2023-02-26T10:51:52.906Z,60.40
2023-02-26T10:54:24.440Z,37.30
2023-02-26T10:56:51.227Z,37.20
2023-02-26T10:59:18.228Z,51.50
2023-02-26T11:01:45.060Z,49.00
2023-02-26T11:04:13.310Z,49.50
2023-02-26T11:06:41.928Z,68.20
2023-02-26T11:09:18.164Z,66.00
2023-02-26T11:11:50.953Z,48.60
2023-02-26T11:14:17.562Z,53.10
2023-02-26T11:16:54.668Z,99.90
2023-02-26T11:19:31.302Z,99.90
2023-02-26T11:21:59.417Z,99.90
2023-02-26T11:24:32.181Z,86.50
2023-02-26T11:27:04.001Z,62.70
2023-02-26T11:29:44.982Z,60.50
2023-02-26T11:32:31.954Z,47.50
2023-02-26T11:34:58.983Z,50.30
2023-02-26T11:37:30.091Z,52.40
2023-02-26T11:40:10.966Z,99.90
2023-02-26T11:42:41.988Z,99.90
2023-02-26T11:45:13.410Z,99.90
2023-02-26T11:47:40.078Z,96.70
2023-02-26T11:50:13.995Z,99.90
2023-02-26T11:52:45.246Z,90.50
2023-02-26T11:55:22.460Z,94.70
2023-02-26T11:57:54.197Z,99.90
2023-02-26T12:00:24.541Z,45.60
2023-02-26T12:02:51.833Z,59.70
2023-02-26T12:05:20.195Z,99.90
2023-02-26T12:07:48.820Z,98.30
2023-02-26T12:10:23.371Z,56.20
2023-02-26T12:13:04.848Z,34.30
2023-02-26T12:15:54.564Z,37.30
2023-02-26T12:18:25.669Z,91.90
2023-02-26T12:21:07.637Z,95.60
2023-02-26T12:23:52.928Z,91.60
2023-02-26T12:26:32.056Z,92.80
2023-02-26T12:29:05.794Z,99.90
2023-02-26T12:31:41.012Z,90.80
2023-02-26T12:34:26.601Z,99.90
2023-02-26T12:37:05.709Z,99.10
2023-02-26T12:39:50.769Z,88.10
2023-02-26T12:42:36.318Z,59.20
2023-02-26T12:45:12.279Z,66.00
2023-02-26T12:47:47.559Z,68.30
2023-02-26T12:50:37.735Z,75.00
2023-02-26T12:53:16.385Z,63.50
2023-02-26T12:55:43.031Z,89.40
2023-02-26T12:58:28.331Z,68.80
2023-02-26T13:01:10.314Z,87.10
2023-02-26T13:03:46.256Z,49.20
2023-02-26T13:06:31.971Z,83.30
2023-02-26T13:09:17.392Z,75.20
2023-02-26T13:11:55.597Z,76.00
2023-02-26T13:14:23.306Z,83.50
2023-02-26T13:16:58.339Z,92.70
2023-02-26T13:19:37.095Z,88.70
2023-02-26T13:22:13.856Z,91.80
2023-02-26T13:24:43.551Z,89.80
2023-02-26T13:27:11.907Z,91.50
2023-02-26T13:29:46.136Z,90.10
2023-02-26T13:32:16.384Z,99.90
2023-02-26T13:34:55.643Z,71.70
2023-02-26T13:37:22.149Z,59.40
2023-02-26T13:40:06.835Z,58.50
2023-02-26T13:42:39.649Z,90.30
2023-02-26T13:45:24.040Z,65.40
2023-02-26T13:47:56.699Z,35.90
2023-02-26T13:50:29.403Z,47.70
2023-02-26T13:52:56.109Z,70.30
2023-02-26T13:55:36.766Z,88.90
2023-02-26T13:58:22.121Z,79.80
2023-02-26T14:01:00.392Z,54.90
2023-02-26T14:03:27.440Z,62.50
2023-02-26T14:05:56.437Z,66.40
2023-02-26T14:08:26.754Z,58.10
2023-02-26T14:10:58.384Z,61.70
2023-02-26T14:13:36.442Z,54.20
2023-02-26T14:16:22.752Z,47.10
2023-02-26T14:18:50.875Z,40.10
2023-02-26T14:21:27.211Z,31.10
2023-02-26T14:24:03.435Z,34.90
2023-02-26T14:26:32.695Z,41.60
2023-02-26T14:29:05.540Z,37.40
2023-02-26T14:31:54.481Z,48.30
2023-02-26T14:34:26.937Z,31.70
2023-02-26T14:36:57.026Z,41.10
2023-02-26T14:39:31.525Z,31.00
2023-02-26T14:42:04.960Z,33.30
2023-02-26T14:44:36.578Z,38.10
2023-02-26T14:47:04.330Z,42.40
2023-02-26T14:52:39.752Z,38.50
2023-02-26T14:55:16.740Z,48.60
2023-02-26T14:57:43.379Z,40.50
2023-02-26T15:00:12.346Z,40.10
2023-02-26T15:02:39.334Z,35.10
2023-02-26T15:05:14.116Z,35.20
2023-02-26T15:07:52.981Z,39.50
2023-02-26T15:10:28.735Z,39.20
2023-02-26T15:12:55.615Z,42.90
2023-02-26T15:15:45.326Z,38.80
2023-02-26T15:18:32.167Z,34.10
2023-02-26T15:21:01.963Z,36.10
2023-02-26T15:23:28.512Z,34.10
2023-02-26T15:25:57.186Z,40.60
2023-02-26T15:28:28.984Z,42.80
2023-02-26T15:30:56.782Z,49.00
2023-02-26T15:33:25.070Z,38.30
2023-02-26T15:35:56.348Z,34.90
2023-02-26T15:38:23.112Z,27.30
2023-02-26T15:40:51.316Z,32.40
2023-02-26T15:43:21.558Z,27.30
2023-02-26T15:45:48.993Z,30.50
2023-02-26T15:48:17.586Z,70.60
2023-02-26T15:50:46.685Z,34.20
2023-02-26T15:53:17.486Z,40.80
2023-02-26T15:55:48.326Z,34.80
2023-02-26T15:58:19.455Z,38.00
2023-02-26T16:00:51.734Z,38.70
2023-02-26T16:03:18.262Z,35.90
2023-02-26T16:05:44.922Z,46.10
2023-02-26T16:08:13.885Z,58.10
2023-02-26T16:10:41.621Z,57.90
2023-02-26T16:13:10.989Z,41.10
2023-02-26T16:15:38.961Z,33.00
2023-02-26T16:18:07.249Z,28.80
2023-02-26T16:20:39.308Z,27.60
2023-02-26T16:23:14.352Z,34.70
2023-02-26T16:26:01.428Z,47.70
2023-02-26T16:28:33.079Z,41.80
2023-02-26T16:31:01.150Z,33.20
2023-02-26T16:33:31.520Z,50.20
2023-02-26T16:36:04.697Z,70.50
2023-02-26T16:38:32.868Z,34.90
2023-02-26T16:41:00.495Z,31.90
2023-02-26T16:43:33.530Z,27.20
2023-02-26T16:46:01.077Z,31.60
2023-02-26T16:48:29.432Z,57.30
2023-02-26T16:51:14.257Z,29.30
2023-02-26T16:53:53.865Z,31.20
2023-02-26T16:56:22.383Z,27.90
2023-02-26T16:58:51.632Z,20.90
2023-02-26T17:01:19.676Z,22.60
2023-02-26T17:03:49.357Z,32.90
2023-02-26T17:06:18.933Z,20.50
2023-02-26T17:08:57.240Z,25.50
2023-02-26T17:11:24.302Z,18.40
2023-02-26T17:14:02.701Z,18.60
2023-02-26T17:16:29.702Z,20.70
2023-02-26T17:18:56.542Z,14.10
2023-02-26T17:21:23.119Z,18.00
2023-02-26T17:23:50.785Z,16.30
2023-02-26T17:26:17.296Z,19.20
2023-02-26T17:28:43.944Z,15.10
2023-02-26T17:31:12.656Z,24.90
2023-02-26T17:33:43.050Z,19.70
2023-02-26T17:36:13.175Z,19.20
2023-02-26T17:38:39.720Z,20.10
2023-02-26T17:41:08.245Z,20.70
2023-02-26T17:43:34.802Z,24.90
2023-02-26T17:46:01.649Z,70.00
2023-02-26T17:48:28.333Z,22.80
2023-02-26T17:50:55.777Z,16.50
2023-02-26T17:53:23.232Z,29.60
2023-02-26T17:55:50.657Z,22.60
2023-02-26T17:58:18.284Z,21.40
2023-02-26T18:00:49.524Z,17.10
2023-02-26T18:03:16.508Z,20.30
2023-02-26T18:05:43.253Z,10.80
2023-02-26T18:08:17.567Z,55.70
2023-02-26T18:10:44.328Z,59.80
2023-02-26T18:13:10.964Z,31.40
2023-02-26T18:15:37.499Z,16.80
2023-02-26T18:18:06.081Z,18.70
2023-02-26T18:20:32.621Z,24.20
2023-02-26T18:22:59.290Z,14.50
2023-02-26T18:25:26.924Z,34.50
2023-02-26T18:27:54.795Z,23.90
2023-02-26T18:30:28.587Z,26.10
2023-02-26T18:32:55.768Z,29.00
2023-02-26T18:35:23.036Z,4.40
2023-02-26T18:37:51.187Z,22.70
2023-02-26T18:40:19.404Z,27.80
2023-02-26T18:42:46.323Z,24.70
2023-02-26T18:45:12.949Z,28.10
2023-02-26T18:47:41.235Z,22.40
2023-02-26T18:50:08.826Z,30.90
2023-02-26T18:52:35.679Z,29.70
2023-02-26T18:55:03.056Z,27.90
2023-02-26T18:57:30.048Z,25.10
2023-02-26T18:59:56.699Z,29.40
2023-02-26T19:02:23.506Z,28.10
2023-02-26T19:04:50.152Z,29.00
2023-02-26T19:07:16.711Z,44.60
2023-02-26T19:09:43.277Z,25.70
2023-02-26T19:12:10.995Z,6.70
2023-02-26T19:14:38.598Z,12.80
2023-02-26T19:17:05.545Z,8.90
2023-02-26T19:19:32.119Z,11.50
2023-02-26T19:21:58.646Z,26.00
2023-02-26T19:24:25.232Z,25.20
2023-02-26T19:26:51.830Z,28.70
2023-02-26T19:29:19.925Z,29.70
2023-02-26T19:31:46.639Z,29.20
2023-02-26T19:34:13.573Z,35.90
2023-02-26T19:36:43.318Z,29.20
2023-02-26T19:39:11.861Z,30.00
2023-02-26T19:41:38.404Z,37.20
2023-02-26T19:44:04.939Z,46.90
2023-02-26T19:46:31.529Z,37.40
2023-02-26T19:48:58.097Z,49.90
2023-02-26T19:51:24.975Z,20.50
2023-02-26T19:53:51.638Z,50.30
2023-02-26T19:56:18.176Z,48.40
2023-02-26T19:58:44.793Z,33.00
2023-02-26T20:01:11.308Z,40.70
2023-02-26T20:03:38.063Z,43.80
2023-02-26T20:06:04.865Z,52.20
2023-02-26T20:08:32.168Z,48.00
2023-02-26T20:10:58.881Z,51.90
2023-02-26T20:13:29.650Z,38.90
2023-02-26T20:15:59.169Z,19.30
2023-02-26T20:18:28.587Z,39.80
2023-02-26T20:20:55.256Z,31.80
2023-02-26T20:23:21.773Z,37.00
2023-02-26T20:25:50.357Z,39.00
2023-02-26T20:28:18.103Z,33.40
2023-02-26T20:30:45.423Z,33.50
2023-02-26T20:33:12.358Z,37.90
2023-02-26T20:35:40.855Z,36.50
2023-02-26T20:38:07.375Z,29.00
2023-02-26T20:40:33.946Z,15.80
2023-02-26T20:43:00.552Z,18.20
2023-02-26T20:45:27.232Z,18.20
2023-02-26T20:47:53.752Z,35.10
2023-02-26T20:50:20.377Z,28.80
2023-02-26T20:52:46.954Z,33.60
2023-02-26T20:55:13.543Z,31.90
2023-02-26T20:57:40.130Z,36.60
2023-02-26T21:00:11.032Z,17.30
2023-02-26T21:02:38.147Z,15.10
2023-02-26T21:05:04.894Z,13.40
2023-02-26T21:07:31.696Z,9.20
2023-02-26T21:09:58.854Z,28.30
2023-02-26T21:12:25.847Z,7.20
2023-02-26T21:14:55.857Z,13.30
2023-02-26T21:17:23.294Z,38.90
2023-02-26T21:19:50.002Z,32.60
2023-02-26T21:22:16.909Z,44.40
2023-02-26T21:24:43.573Z,41.50
2023-02-26T21:27:15.459Z,30.40
2023-02-26T21:29:42.296Z,32.30
2023-02-26T21:32:09.121Z,34.50
2023-02-26T21:34:36.313Z,29.20
2023-02-26T21:37:03.880Z,30.20
2023-02-26T21:39:31.068Z,30.40
2023-02-26T21:42:00.121Z,31.20
2023-02-26T21:44:27.277Z,38.80
2023-02-26T21:46:54.148Z,23.90
2023-02-26T21:49:20.724Z,28.80
2023-02-26T21:51:47.261Z,22.40
2023-02-26T21:54:13.986Z,32.10
2023-02-26T21:56:40.540Z,27.60
2023-02-26T21:59:07.078Z,26.10
2023-02-26T22:01:34.148Z,24.20
2023-02-26T22:04:01.880Z,27.30
2023-02-26T22:06:28.916Z,25.20
2023-02-26T22:08:55.558Z,25.60
2023-02-26T22:11:22.156Z,27.30
2023-02-26T22:13:49.017Z,26.30
2023-02-26T22:16:16.305Z,31.30
2023-02-26T22:18:43.007Z,1.00
2023-02-26T22:21:09.580Z,27.70
2023-02-26T22:23:36.131Z,35.20
2023-02-26T22:26:02.794Z,1.00
2023-02-26T22:28:29.398Z,32.20
2023-02-26T22:30:56.310Z,5.20
2023-02-26T22:33:23.462Z,36.00
2023-02-26T22:35:51.232Z,22.90
2023-02-26T22:38:17.745Z,31.00
2023-02-26T22:40:44.610Z,29.80
2023-02-26T22:43:12.173Z,48.00
2023-02-26T22:45:38.789Z,27.60
2023-02-26T22:48:05.438Z,24.70
2023-02-26T22:50:33.136Z,19.10
2023-02-26T22:52:59.897Z,34.70
2023-02-26T22:55:26.546Z,35.80
2023-02-26T22:57:53.129Z,18.00
2023-02-26T23:03:11.198Z,16.20
2023-02-26T23:05:37.976Z,15.30
2023-02-26T23:08:04.586Z,15.60
2023-02-26T23:10:31.256Z,26.40
2023-02-26T23:13:00.157Z,11.90
2023-02-26T23:15:26.943Z,16.10
2023-02-26T23:17:53.484Z,15.60
2023-02-26T23:20:20.034Z,12.70
2023-02-26T23:22:46.708Z,14.10
2023-02-26T23:25:13.264Z,22.20
2023-02-26T23:27:39.885Z,11.70
2023-02-26T23:30:08.239Z,69.30
2023-02-26T23:32:34.940Z,15.50
2023-02-26T23:35:01.573Z,18.40
2023-02-26T23:37:28.087Z,14.20
2023-02-26T23:39:54.789Z,18.70
2023-02-26T23:42:21.390Z,3.30
2023-02-26T23:44:47.924Z,17.60
2023-02-26T23:47:14.501Z,13.70
2023-02-26T23:49:41.044Z,26.30
2023-02-26T23:52:07.564Z,20.90
2023-02-26T23:54:34.120Z,16.70
2023-02-26T23:57:00.644Z,12.60
2023-02-26T23:59:27.163Z,5.60
